sensor_id;sensor_type;location;lat;lon;timestamp;pressure;altitude;pressure_sealevel;temperature
65290;BMP180;51893;59.754;10.110;2023-05-02T00:00:23;101310.40;;;4.10
65290;BMP180;51893;59.754;10.110;2023-05-02T00:03:11;101316.80;;;4.02
65290;BMP180;51893;59.754;10.110;2023-05-02T00:05:40;101318.40;;;4.00
65290;BMP180;51893;59.754;10.110;2023-05-02T00:08:09;101319.20;;;4.00
65290;BMP180;51893;59.754;10.110;2023-05-02T00:10:39;101317.80;;;4.02
65290;BMP180;51893;59.754;10.110;2023-05-02T00:13:07;101312.40;;;4.10
65290;BMP180;51893;59.754;10.110;2023-05-02T00:15:37;101319.40;;;4.10
65290;BMP180;51893;59.754;10.110;2023-05-02T00:18:07;101317.60;;;4.00
65290;BMP180;51893;59.754;10.110;2023-05-02T00:20:39;101318.20;;;4.00
65290;BMP180;51893;59.754;10.110;2023-05-02T00:23:11;101317.00;;;4.00
65290;BMP180;51893;59.754;10.110;2023-05-02T00:25:46;101318.80;;;4.00
65290;BMP180;51893;59.754;10.110;2023-05-02T00:28:14;101321.60;;;3.90
65290;BMP180;51893;59.754;10.110;2023-05-02T00:30:43;101329.40;;;3.90
65290;BMP180;51893;59.754;10.110;2023-05-02T00:33:13;101335.60;;;3.90
65290;BMP180;51893;59.754;10.110;2023-05-02T00:35:47;101337.20;;;3.80
65290;BMP180;51893;59.754;10.110;2023-05-02T00:38:18;101339.20;;;3.70
65290;BMP180;51893;59.754;10.110;2023-05-02T00:40:49;101347.40;;;3.60
65290;BMP180;51893;59.754;10.110;2023-05-02T00:43:21;101352.00;;;3.50
65290;BMP180;51893;59.754;10.110;2023-05-02T00:45:49;101352.20;;;3.50
65290;BMP180;51893;59.754;10.110;2023-05-02T00:48:18;101352.80;;;3.50
65290;BMP180;51893;59.754;10.110;2023-05-02T00:50:50;101350.20;;;3.50
65290;BMP180;51893;59.754;10.110;2023-05-02T00:53:18;101349.00;;;3.50
65290;BMP180;51893;59.754;10.110;2023-05-02T00:55:49;101357.60;;;3.50
65290;BMP180;51893;59.754;10.110;2023-05-02T00:58:19;101358.00;;;3.50
65290;BMP180;51893;59.754;10.110;2023-05-02T01:01:06;101359.00;;;3.40
65290;BMP180;51893;59.754;10.110;2023-05-02T01:10:08;101377.60;;;3.38
65290;BMP180;51893;59.754;10.110;2023-05-02T01:15:48;101375.80;;;3.40
65290;BMP180;51893;59.754;10.110;2023-05-02T01:18:22;101372.40;;;3.30
65290;BMP180;51893;59.754;10.110;2023-05-02T01:21:03;101383.00;;;3.30
65290;BMP180;51893;59.754;10.110;2023-05-02T01:23:56;101388.20;;;3.20
65290;BMP180;51893;59.754;10.110;2023-05-02T01:27:00;101393.80;;;3.20
65290;BMP180;51893;59.754;10.110;2023-05-02T01:29:49;101393.80;;;3.00
65290;BMP180;51893;59.754;10.110;2023-05-02T01:32:21;101393.80;;;3.00
65290;BMP180;51893;59.754;10.110;2023-05-02T01:34:53;101394.80;;;3.00
65290;BMP180;51893;59.754;10.110;2023-05-02T01:37:27;101393.40;;;2.90
65290;BMP180;51893;59.754;10.110;2023-05-02T01:39:57;101399.20;;;2.80
65290;BMP180;51893;59.754;10.110;2023-05-02T01:42:29;101403.60;;;2.80
65290;BMP180;51893;59.754;10.110;2023-05-02T01:45:03;101405.00;;;2.70
65290;BMP180;51893;59.754;10.110;2023-05-02T01:47:34;101412.00;;;2.60
65290;BMP180;51893;59.754;10.110;2023-05-02T01:50:11;101412.20;;;2.60
65290;BMP180;51893;59.754;10.110;2023-05-02T01:52:48;101412.60;;;2.70
65290;BMP180;51893;59.754;10.110;2023-05-02T01:55:23;101414.80;;;2.70
65290;BMP180;51893;59.754;10.110;2023-05-02T01:57:56;101414.20;;;2.70
65290;BMP180;51893;59.754;10.110;2023-05-02T02:00:25;101417.20;;;2.72
65290;BMP180;51893;59.754;10.110;2023-05-02T02:02:56;101418.60;;;2.80
65290;BMP180;51893;59.754;10.110;2023-05-02T02:05:26;101418.40;;;2.80
65290;BMP180;51893;59.754;10.110;2023-05-02T02:07:59;101422.20;;;2.90
65290;BMP180;51893;59.754;10.110;2023-05-02T02:10:36;101422.40;;;2.90
65290;BMP180;51893;59.754;10.110;2023-05-02T02:13:25;101428.80;;;2.90
65290;BMP180;51893;59.754;10.110;2023-05-02T02:15:59;101432.60;;;2.80
65290;BMP180;51893;59.754;10.110;2023-05-02T02:18:44;101440.40;;;2.80
65290;BMP180;51893;59.754;10.110;2023-05-02T02:21:20;101449.00;;;2.78
65290;BMP180;51893;59.754;10.110;2023-05-02T02:23:56;101451.00;;;2.72
65290;BMP180;51893;59.754;10.110;2023-05-02T02:26:29;101448.20;;;2.70
65290;BMP180;51893;59.754;10.110;2023-05-02T02:28:59;101440.60;;;2.70
65290;BMP180;51893;59.754;10.110;2023-05-02T02:31:35;101441.60;;;2.70
65290;BMP180;51893;59.754;10.110;2023-05-02T02:34:09;101441.40;;;2.70
65290;BMP180;51893;59.754;10.110;2023-05-02T02:36:47;101437.80;;;2.70
65290;BMP180;51893;59.754;10.110;2023-05-02T02:39:49;101441.80;;;2.70
65290;BMP180;51893;59.754;10.110;2023-05-02T02:48:42;101443.60;;;2.80
65290;BMP180;51893;59.754;10.110;2023-05-02T02:51:30;101445.40;;;2.70
65290;BMP180;51893;59.754;10.110;2023-05-02T02:54:34;101446.20;;;2.70
65290;BMP180;51893;59.754;10.110;2023-05-02T02:57:16;101450.20;;;2.60
65290;BMP180;51893;59.754;10.110;2023-05-02T03:00:20;101459.80;;;2.60
65290;BMP180;51893;59.754;10.110;2023-05-02T03:02:51;101461.00;;;2.50
65290;BMP180;51893;59.754;10.110;2023-05-02T03:05:21;101472.20;;;2.50
65290;BMP180;51893;59.754;10.110;2023-05-02T03:07:51;101473.40;;;2.50
65290;BMP180;51893;59.754;10.110;2023-05-02T03:10:22;101478.40;;;2.50
65290;BMP180;51893;59.754;10.110;2023-05-02T03:12:52;101477.40;;;2.50
65290;BMP180;51893;59.754;10.110;2023-05-02T03:16:35;101487.00;;;2.50
65290;BMP180;51893;59.754;10.110;2023-05-02T03:19:06;101483.20;;;2.50
65290;BMP180;51893;59.754;10.110;2023-05-02T03:21:34;101487.40;;;2.50
65290;BMP180;51893;59.754;10.110;2023-05-02T03:24:03;101499.00;;;2.60
65290;BMP180;51893;59.754;10.110;2023-05-02T03:26:33;101493.60;;;2.70
65290;BMP180;51893;59.754;10.110;2023-05-02T03:29:03;101500.60;;;2.72
65290;BMP180;51893;59.754;10.110;2023-05-02T03:31:31;101509.20;;;2.80
65290;BMP180;51893;59.754;10.110;2023-05-02T03:33:59;101505.80;;;2.90
65290;BMP180;51893;59.754;10.110;2023-05-02T03:36:28;101515.40;;;3.00
65290;BMP180;51893;59.754;10.110;2023-05-02T03:38:57;101512.00;;;3.00
65290;BMP180;51893;59.754;10.110;2023-05-02T03:41:28;101519.00;;;3.00
65290;BMP180;51893;59.754;10.110;2023-05-02T03:44:02;101529.00;;;3.00
65290;BMP180;51893;59.754;10.110;2023-05-02T03:46:32;101532.80;;;3.10
65290;BMP180;51893;59.754;10.110;2023-05-02T03:49:00;101538.20;;;3.10
65290;BMP180;51893;59.754;10.110;2023-05-02T03:51:28;101534.20;;;3.10
65290;BMP180;51893;59.754;10.110;2023-05-02T03:54:00;101537.80;;;3.06
65290;BMP180;51893;59.754;10.110;2023-05-02T03:56:29;101543.60;;;3.10
65290;BMP180;51893;59.754;10.110;2023-05-02T03:58:58;101549.40;;;3.10
65290;BMP180;51893;59.754;10.110;2023-05-02T04:01:34;101546.20;;;3.00
65290;BMP180;51893;59.754;10.110;2023-05-02T04:04:03;101553.60;;;2.78
65290;BMP180;51893;59.754;10.110;2023-05-02T04:06:33;101555.80;;;2.70
65290;BMP180;51893;59.754;10.110;2023-05-02T04:09:03;101550.40;;;2.60
65290;BMP180;51893;59.754;10.110;2023-05-02T04:11:33;101553.80;;;2.60
65290;BMP180;51893;59.754;10.110;2023-05-02T04:14:01;101555.40;;;2.52
65290;BMP180;51893;59.754;10.110;2023-05-02T04:16:32;101555.60;;;2.50
65290;BMP180;51893;59.754;10.110;2023-05-02T04:19:02;101561.80;;;2.60
65290;BMP180;51893;59.754;10.110;2023-05-02T04:21:31;101561.80;;;2.60
65290;BMP180;51893;59.754;10.110;2023-05-02T04:24:00;101559.40;;;2.58
65290;BMP180;51893;59.754;10.110;2023-05-02T04:26:31;101557.60;;;2.60
65290;BMP180;51893;59.754;10.110;2023-05-02T04:28:59;101560.40;;;2.60
65290;BMP180;51893;59.754;10.110;2023-05-02T04:31:30;101554.80;;;2.60
65290;BMP180;51893;59.754;10.110;2023-05-02T04:33:58;101552.80;;;2.60
65290;BMP180;51893;59.754;10.110;2023-05-02T04:36:28;101555.80;;;2.70
65290;BMP180;51893;59.754;10.110;2023-05-02T04:38:59;101561.00;;;2.76
65290;BMP180;51893;59.754;10.110;2023-05-02T04:41:27;101558.40;;;2.80
65290;BMP180;51893;59.754;10.110;2023-05-02T04:43:56;101555.00;;;2.80
65290;BMP180;51893;59.754;10.110;2023-05-02T04:46:25;101561.20;;;2.80
65290;BMP180;51893;59.754;10.110;2023-05-02T04:48:53;101566.00;;;2.80
65290;BMP180;51893;59.754;10.110;2023-05-02T04:51:21;101570.40;;;2.80
65290;BMP180;51893;59.754;10.110;2023-05-02T04:53:49;101570.80;;;2.80
65290;BMP180;51893;59.754;10.110;2023-05-02T04:56:19;101571.40;;;2.80
65290;BMP180;51893;59.754;10.110;2023-05-02T04:58:51;101572.40;;;2.82
65290;BMP180;51893;59.754;10.110;2023-05-02T05:01:24;101567.40;;;2.90
65290;BMP180;51893;59.754;10.110;2023-05-02T05:03:55;101570.60;;;2.90
65290;BMP180;51893;59.754;10.110;2023-05-02T05:06:23;101565.80;;;2.90
65290;BMP180;51893;59.754;10.110;2023-05-02T05:08:51;101569.60;;;2.90
65290;BMP180;51893;59.754;10.110;2023-05-02T05:11:19;101566.80;;;3.00
65290;BMP180;51893;59.754;10.110;2023-05-02T05:13:48;101568.80;;;3.00
65290;BMP180;51893;59.754;10.110;2023-05-02T05:16:16;101567.00;;;3.08
65290;BMP180;51893;59.754;10.110;2023-05-02T05:18:45;101580.60;;;3.16
65290;BMP180;51893;59.754;10.110;2023-05-02T05:21:14;101578.20;;;3.20
65290;BMP180;51893;59.754;10.110;2023-05-02T05:23:42;101578.00;;;3.20
65290;BMP180;51893;59.754;10.110;2023-05-02T05:26:15;101586.00;;;3.22
65290;BMP180;51893;59.754;10.110;2023-05-02T05:28:47;101588.20;;;3.30
65290;BMP180;51893;59.754;10.110;2023-05-02T05:31:19;101590.60;;;3.30
65290;BMP180;51893;59.754;10.110;2023-05-02T05:33:50;101598.20;;;3.40
65290;BMP180;51893;59.754;10.110;2023-05-02T05:36:20;101603.80;;;3.40
65290;BMP180;51893;59.754;10.110;2023-05-02T05:39:03;101612.00;;;3.40
65290;BMP180;51893;59.754;10.110;2023-05-02T05:41:31;101617.80;;;3.40
65290;BMP180;51893;59.754;10.110;2023-05-02T05:44:01;101619.20;;;3.50
65290;BMP180;51893;59.754;10.110;2023-05-02T05:46:29;101613.40;;;3.50
65290;BMP180;51893;59.754;10.110;2023-05-02T05:48:57;101612.00;;;3.50
65290;BMP180;51893;59.754;10.110;2023-05-02T05:51:28;101609.00;;;3.60
65290;BMP180;51893;59.754;10.110;2023-05-02T05:53:56;101618.20;;;3.70
65290;BMP180;51893;59.754;10.110;2023-05-02T05:56:24;101619.40;;;3.80
65290;BMP180;51893;59.754;10.110;2023-05-02T05:58:52;101623.20;;;3.90
65290;BMP180;51893;59.754;10.110;2023-05-02T06:01:21;101615.20;;;4.00
65290;BMP180;51893;59.754;10.110;2023-05-02T06:03:51;101623.80;;;4.10
65290;BMP180;51893;59.754;10.110;2023-05-02T06:06:20;101625.20;;;4.20
65290;BMP180;51893;59.754;10.110;2023-05-02T06:08:51;101631.20;;;4.30
65290;BMP180;51893;59.754;10.110;2023-05-02T06:11:19;101634.80;;;4.40
65290;BMP180;51893;59.754;10.110;2023-05-02T06:13:51;101631.60;;;4.50
65290;BMP180;51893;59.754;10.110;2023-05-02T06:16:19;101633.40;;;4.60
65290;BMP180;51893;59.754;10.110;2023-05-02T06:18:49;101645.00;;;4.70
65290;BMP180;51893;59.754;10.110;2023-05-02T06:21:20;101641.80;;;4.80
65290;BMP180;51893;59.754;10.110;2023-05-02T06:23:50;101651.60;;;4.90
65290;BMP180;51893;59.754;10.110;2023-05-02T06:26:19;101652.20;;;4.90
65290;BMP180;51893;59.754;10.110;2023-05-02T06:28:48;101652.80;;;5.00
65290;BMP180;51893;59.754;10.110;2023-05-02T06:31:24;101655.60;;;5.10
65290;BMP180;51893;59.754;10.110;2023-05-02T06:33:52;101664.00;;;5.20
65290;BMP180;51893;59.754;10.110;2023-05-02T06:36:20;101665.20;;;5.30
65290;BMP180;51893;59.754;10.110;2023-05-02T06:38:51;101669.20;;;5.38
65290;BMP180;51893;59.754;10.110;2023-05-02T06:41:20;101670.00;;;5.48
65290;BMP180;51893;59.754;10.110;2023-05-02T06:43:48;101672.40;;;5.56
65290;BMP180;51893;59.754;10.110;2023-05-02T06:46:16;101677.00;;;5.70
65290;BMP180;51893;59.754;10.110;2023-05-02T06:48:46;101685.60;;;5.80
65290;BMP180;51893;59.754;10.110;2023-05-02T06:51:14;101691.80;;;5.90
65290;BMP180;51893;59.754;10.110;2023-05-02T06:53:43;101696.60;;;6.00
65290;BMP180;51893;59.754;10.110;2023-05-02T06:56:11;101696.80;;;6.10
65290;BMP180;51893;59.754;10.110;2023-05-02T06:58:39;101699.80;;;6.20
65290;BMP180;51893;59.754;10.110;2023-05-02T07:01:07;101703.00;;;6.30
65290;BMP180;51893;59.754;10.110;2023-05-02T07:03:35;101717.00;;;6.40
65290;BMP180;51893;59.754;10.110;2023-05-02T07:06:03;101723.00;;;6.50
65290;BMP180;51893;59.754;10.110;2023-05-02T07:08:33;101721.80;;;6.60
65290;BMP180;51893;59.754;10.110;2023-05-02T07:11:02;101726.00;;;6.70
65290;BMP180;51893;59.754;10.110;2023-05-02T07:13:30;101732.60;;;6.80
65290;BMP180;51893;59.754;10.110;2023-05-02T07:15:58;101739.40;;;6.88
65290;BMP180;51893;59.754;10.110;2023-05-02T07:18:26;101744.40;;;6.90
65290;BMP180;51893;59.754;10.110;2023-05-02T07:20:55;101750.80;;;7.00
65290;BMP180;51893;59.754;10.110;2023-05-02T07:23:23;101752.20;;;7.10
65290;BMP180;51893;59.754;10.110;2023-05-02T07:25:51;101752.40;;;7.20
65290;BMP180;51893;59.754;10.110;2023-05-02T07:28:19;101763.60;;;7.30
65290;BMP180;51893;59.754;10.110;2023-05-02T07:30:48;101764.40;;;7.40
65290;BMP180;51893;59.754;10.110;2023-05-02T07:33:16;101768.40;;;7.50
65290;BMP180;51893;59.754;10.110;2023-05-02T07:35:46;101772.60;;;7.60
65290;BMP180;51893;59.754;10.110;2023-05-02T07:38:14;101770.80;;;7.70
65290;BMP180;51893;59.754;10.110;2023-05-02T07:40:43;101771.20;;;7.80
65290;BMP180;51893;59.754;10.110;2023-05-02T07:43:16;101770.40;;;7.80
65290;BMP180;51893;59.754;10.110;2023-05-02T07:45:45;101768.20;;;7.90
65290;BMP180;51893;59.754;10.110;2023-05-02T07:48:13;101767.80;;;8.00
65290;BMP180;51893;59.754;10.110;2023-05-02T07:50:41;101764.80;;;8.10
65290;BMP180;51893;59.754;10.110;2023-05-02T07:53:12;101770.00;;;8.20
65290;BMP180;51893;59.754;10.110;2023-05-02T07:55:40;101774.40;;;8.30
65290;BMP180;51893;59.754;10.110;2023-05-02T07:58:09;101773.00;;;8.30
65290;BMP180;51893;59.754;10.110;2023-05-02T08:00:37;101767.20;;;8.40
65290;BMP180;51893;59.754;10.110;2023-05-02T08:03:05;101769.20;;;8.52
65290;BMP180;51893;59.754;10.110;2023-05-02T08:05:35;101774.40;;;8.60
65290;BMP180;51893;59.754;10.110;2023-05-02T08:08:04;101776.80;;;8.70
65290;BMP180;51893;59.754;10.110;2023-05-02T08:10:32;101779.80;;;8.74
65290;BMP180;51893;59.754;10.110;2023-05-02T08:13:02;101781.00;;;8.80
65290;BMP180;51893;59.754;10.110;2023-05-02T08:15:30;101787.60;;;8.90
65290;BMP180;51893;59.754;10.110;2023-05-02T08:17:57;101785.80;;;9.00
65290;BMP180;51893;59.754;10.110;2023-05-02T08:20:28;101791.40;;;9.00
65290;BMP180;51893;59.754;10.110;2023-05-02T08:22:57;101786.40;;;9.10
65290;BMP180;51893;59.754;10.110;2023-05-02T08:25:29;101777.60;;;9.20
65290;BMP180;51893;59.754;10.110;2023-05-02T08:27:59;101782.80;;;9.30
65290;BMP180;51893;59.754;10.110;2023-05-02T08:30:28;101775.00;;;9.40
65290;BMP180;51893;59.754;10.110;2023-05-02T08:32:56;101775.60;;;9.40
65290;BMP180;51893;59.754;10.110;2023-05-02T08:35:27;101769.40;;;9.46
65290;BMP180;51893;59.754;10.110;2023-05-02T08:37:55;101771.60;;;9.60
65290;BMP180;51893;59.754;10.110;2023-05-02T08:40:24;101772.60;;;9.70
65290;BMP180;51893;59.754;10.110;2023-05-02T08:43:11;101772.00;;;9.80
65290;BMP180;51893;59.754;10.110;2023-05-02T08:45:43;101771.60;;;9.86
65290;BMP180;51893;59.754;10.110;2023-05-02T08:48:12;101766.60;;;9.94
65290;BMP180;51893;59.754;10.110;2023-05-02T08:50:44;101765.40;;;10.00
65290;BMP180;51893;59.754;10.110;2023-05-02T08:53:17;101770.00;;;10.10
65290;BMP180;51893;59.754;10.110;2023-05-02T08:55:48;101777.00;;;10.20
65290;BMP180;51893;59.754;10.110;2023-05-02T08:58:16;101768.20;;;10.30
65290;BMP180;51893;59.754;10.110;2023-05-02T09:00:47;101779.80;;;10.30
65290;BMP180;51893;59.754;10.110;2023-05-02T09:03:32;101774.60;;;10.40
65290;BMP180;51893;59.754;10.110;2023-05-02T09:06:11;101785.80;;;10.50
65290;BMP180;51893;59.754;10.110;2023-05-02T09:08:41;101783.60;;;10.60
65290;BMP180;51893;59.754;10.110;2023-05-02T09:11:12;101789.60;;;10.70
65290;BMP180;51893;59.754;10.110;2023-05-02T09:13:47;101787.00;;;10.70
65290;BMP180;51893;59.754;10.110;2023-05-02T09:16:23;101794.60;;;10.84
65290;BMP180;51893;59.754;10.110;2023-05-02T09:18:57;101792.60;;;10.90
65290;BMP180;51893;59.754;10.110;2023-05-02T09:21:36;101787.60;;;10.94
65290;BMP180;51893;59.754;10.110;2023-05-02T09:24:18;101796.40;;;11.02
65290;BMP180;51893;59.754;10.110;2023-05-02T09:27:02;101801.00;;;11.10
65290;BMP180;51893;59.754;10.110;2023-05-02T09:29:34;101799.40;;;11.20
65290;BMP180;51893;59.754;10.110;2023-05-02T09:32:04;101802.80;;;11.30
65290;BMP180;51893;59.754;10.110;2023-05-02T09:34:33;101801.40;;;11.38
65290;BMP180;51893;59.754;10.110;2023-05-02T09:37:04;101801.80;;;11.50
65290;BMP180;51893;59.754;10.110;2023-05-02T09:40:06;101797.80;;;11.60
65290;BMP180;51893;59.754;10.110;2023-05-02T09:42:36;101800.00;;;11.70
65290;BMP180;51893;59.754;10.110;2023-05-02T09:45:06;101796.40;;;11.82
65290;BMP180;51893;59.754;10.110;2023-05-02T09:47:34;101796.20;;;11.90
65290;BMP180;51893;59.754;10.110;2023-05-02T09:50:04;101790.60;;;12.00
65290;BMP180;51893;59.754;10.110;2023-05-02T09:52:35;101795.60;;;12.16
65290;BMP180;51893;59.754;10.110;2023-05-02T09:55:19;101798.20;;;12.12
65290;BMP180;51893;59.754;10.110;2023-05-02T09:57:49;101793.00;;;12.24
65290;BMP180;51893;59.754;10.110;2023-05-02T10:00:18;101790.20;;;12.40
65290;BMP180;51893;59.754;10.110;2023-05-02T10:02:49;101796.20;;;12.50
65290;BMP180;51893;59.754;10.110;2023-05-02T10:05:19;101800.80;;;12.58
65290;BMP180;51893;59.754;10.110;2023-05-02T10:07:47;101791.40;;;12.60
65290;BMP180;51893;59.754;10.110;2023-05-02T10:10:19;101787.20;;;12.80
65290;BMP180;51893;59.754;10.110;2023-05-02T10:12:52;101790.40;;;13.02
65290;BMP180;51893;59.754;10.110;2023-05-02T10:15:25;101787.40;;;13.20
65290;BMP180;51893;59.754;10.110;2023-05-02T10:17:57;101779.40;;;13.20
65290;BMP180;51893;59.754;10.110;2023-05-02T10:21:02;101784.20;;;13.26
65290;BMP180;51893;59.754;10.110;2023-05-02T10:23:34;101786.60;;;13.42
65290;BMP180;51893;59.754;10.110;2023-05-02T10:26:03;101790.00;;;13.66
65290;BMP180;51893;59.754;10.110;2023-05-02T10:28:32;101789.60;;;13.76
65290;BMP180;51893;59.754;10.110;2023-05-02T10:31:04;101795.00;;;13.70
65290;BMP180;51893;59.754;10.110;2023-05-02T10:33:35;101801.60;;;13.50
65290;BMP180;51893;59.754;10.110;2023-05-02T10:36:11;101802.00;;;13.30
65290;BMP180;51893;59.754;10.110;2023-05-02T10:38:44;101810.60;;;13.46
65290;BMP180;51893;59.754;10.110;2023-05-02T10:41:25;101805.20;;;13.60
65290;BMP180;51893;59.754;10.110;2023-05-02T10:43:55;101801.00;;;13.76
65290;BMP180;51893;59.754;10.110;2023-05-02T10:46:39;101807.20;;;14.00
65290;BMP180;51893;59.754;10.110;2023-05-02T10:49:11;101808.20;;;14.10
65290;BMP180;51893;59.754;10.110;2023-05-02T10:51:42;101821.60;;;14.10
65290;BMP180;51893;59.754;10.110;2023-05-02T10:54:22;101821.40;;;14.00
65290;BMP180;51893;59.754;10.110;2023-05-02T10:59:37;101814.20;;;14.20
65290;BMP180;51893;59.754;10.110;2023-05-02T11:05:06;101817.80;;;14.26
65290;BMP180;51893;59.754;10.110;2023-05-02T11:07:36;101810.40;;;14.28
65290;BMP180;51893;59.754;10.110;2023-05-02T11:12:56;101832.80;;;14.22
65290;BMP180;51893;59.754;10.110;2023-05-02T11:18:12;101831.20;;;13.90
65290;BMP180;51893;59.754;10.110;2023-05-02T11:20:44;101822.20;;;13.96
65290;BMP180;51893;59.754;10.110;2023-05-02T11:26:24;101837.60;;;14.20
65290;BMP180;51893;59.754;10.110;2023-05-02T11:28:56;101830.20;;;14.00
65290;BMP180;51893;59.754;10.110;2023-05-02T11:34:02;101844.00;;;14.10
65290;BMP180;51893;59.754;10.110;2023-05-02T11:36:35;101843.80;;;13.90
65290;BMP180;51893;59.754;10.110;2023-05-02T11:39:04;101837.60;;;13.90
65290;BMP180;51893;59.754;10.110;2023-05-02T11:41:40;101824.60;;;13.90
65290;BMP180;51893;59.754;10.110;2023-05-02T11:44:09;101834.00;;;13.90
65290;BMP180;51893;59.754;10.110;2023-05-02T11:46:39;101840.40;;;14.02
65290;BMP180;51893;59.754;10.110;2023-05-02T11:49:08;101839.00;;;14.18
65290;BMP180;51893;59.754;10.110;2023-05-02T11:51:39;101837.00;;;14.10
65290;BMP180;51893;59.754;10.110;2023-05-02T11:54:08;101827.80;;;14.30
65290;BMP180;51893;59.754;10.110;2023-05-02T11:56:36;101832.40;;;14.60
65290;BMP180;51893;59.754;10.110;2023-05-02T11:59:06;101830.00;;;14.60
65290;BMP180;51893;59.754;10.110;2023-05-02T12:01:35;101829.60;;;14.60
65290;BMP180;51893;59.754;10.110;2023-05-02T12:04:06;101829.60;;;14.60
65290;BMP180;51893;59.754;10.110;2023-05-02T12:06:35;101837.00;;;14.76
65290;BMP180;51893;59.754;10.110;2023-05-02T12:09:13;101834.60;;;14.80
65290;BMP180;51893;59.754;10.110;2023-05-02T12:11:52;101840.40;;;14.74
65290;BMP180;51893;59.754;10.110;2023-05-02T12:14:28;101838.40;;;14.88
65290;BMP180;51893;59.754;10.110;2023-05-02T12:17:05;101838.00;;;14.80
65290;BMP180;51893;59.754;10.110;2023-05-02T12:19:33;101842.60;;;14.90
65290;BMP180;51893;59.754;10.110;2023-05-02T12:22:04;101839.60;;;14.90
65290;BMP180;51893;59.754;10.110;2023-05-02T12:24:35;101846.60;;;15.00
65290;BMP180;51893;59.754;10.110;2023-05-02T12:27:21;101848.80;;;15.10
65290;BMP180;51893;59.754;10.110;2023-05-02T12:29:50;101854.20;;;15.10
65290;BMP180;51893;59.754;10.110;2023-05-02T12:32:32;101857.00;;;14.90
65290;BMP180;51893;59.754;10.110;2023-05-02T12:35:02;101871.60;;;14.90
65290;BMP180;51893;59.754;10.110;2023-05-02T12:37:31;101861.80;;;14.78
65290;BMP180;51893;59.754;10.110;2023-05-02T12:39:59;101866.00;;;14.80
65290;BMP180;51893;59.754;10.110;2023-05-02T12:42:28;101874.40;;;14.90
65290;BMP180;51893;59.754;10.110;2023-05-02T12:44:56;101881.40;;;14.90
65290;BMP180;51893;59.754;10.110;2023-05-02T12:47:24;101885.80;;;14.80
65290;BMP180;51893;59.754;10.110;2023-05-02T12:49:57;101889.00;;;14.66
65290;BMP180;51893;59.754;10.110;2023-05-02T12:52:47;101884.80;;;14.60
65290;BMP180;51893;59.754;10.110;2023-05-02T12:55:21;101892.80;;;14.52
65290;BMP180;51893;59.754;10.110;2023-05-02T12:58:07;101897.00;;;14.50
65290;BMP180;51893;59.754;10.110;2023-05-02T13:00:39;101889.40;;;14.54
65290;BMP180;51893;59.754;10.110;2023-05-02T13:03:08;101883.80;;;14.80
65290;BMP180;51893;59.754;10.110;2023-05-02T13:05:38;101889.80;;;14.82
65290;BMP180;51893;59.754;10.110;2023-05-02T13:08:07;101890.60;;;14.80
65290;BMP180;51893;59.754;10.110;2023-05-02T13:10:35;101890.40;;;14.72
65290;BMP180;51893;59.754;10.110;2023-05-02T13:13:03;101892.00;;;14.82
65290;BMP180;51893;59.754;10.110;2023-05-02T13:15:31;101890.40;;;14.80
65290;BMP180;51893;59.754;10.110;2023-05-02T13:18:03;101895.80;;;14.80
65290;BMP180;51893;59.754;10.110;2023-05-02T13:20:32;101895.80;;;14.66
65290;BMP180;51893;59.754;10.110;2023-05-02T13:23:01;101894.80;;;14.50
65290;BMP180;51893;59.754;10.110;2023-05-02T13:25:31;101899.00;;;14.40
65290;BMP180;51893;59.754;10.110;2023-05-02T13:27:59;101898.80;;;14.30
65290;BMP180;51893;59.754;10.110;2023-05-02T13:30:28;101900.60;;;14.50
65290;BMP180;51893;59.754;10.110;2023-05-02T13:32:58;101891.00;;;14.80
65290;BMP180;51893;59.754;10.110;2023-05-02T13:35:29;101891.20;;;15.10
65290;BMP180;51893;59.754;10.110;2023-05-02T13:38:02;101898.40;;;15.32
65290;BMP180;51893;59.754;10.110;2023-05-02T13:40:30;101892.60;;;15.70
65290;BMP180;51893;59.754;10.110;2023-05-02T13:43:01;101898.60;;;15.94
65290;BMP180;51893;59.754;10.110;2023-05-02T13:45:29;101907.40;;;15.96
65290;BMP180;51893;59.754;10.110;2023-05-02T13:48:00;101916.20;;;15.76
65290;BMP180;51893;59.754;10.110;2023-05-02T13:50:32;101915.00;;;15.54
65290;BMP180;51893;59.754;10.110;2023-05-02T13:53:04;101921.20;;;15.30
65290;BMP180;51893;59.754;10.110;2023-05-02T13:55:32;101919.00;;;15.20
65290;BMP180;51893;59.754;10.110;2023-05-02T13:58:01;101913.20;;;15.22
65290;BMP180;51893;59.754;10.110;2023-05-02T14:00:30;101918.60;;;15.20
65290;BMP180;51893;59.754;10.110;2023-05-02T14:02:58;101915.40;;;15.24
65290;BMP180;51893;59.754;10.110;2023-05-02T14:05:27;101920.80;;;15.40
65290;BMP180;51893;59.754;10.110;2023-05-02T14:07:55;101922.20;;;15.40
65290;BMP180;51893;59.754;10.110;2023-05-02T14:10:23;101922.40;;;15.34
65290;BMP180;51893;59.754;10.110;2023-05-02T14:12:51;101928.20;;;15.20
65290;BMP180;51893;59.754;10.110;2023-05-02T14:15:19;101925.60;;;15.10
65290;BMP180;51893;59.754;10.110;2023-05-02T14:17:49;101928.20;;;14.90
65290;BMP180;51893;59.754;10.110;2023-05-02T14:20:19;101936.60;;;14.74
65290;BMP180;51893;59.754;10.110;2023-05-02T14:22:47;101937.20;;;14.60
65290;BMP180;51893;59.754;10.110;2023-05-02T14:25:15;101926.60;;;14.80
65290;BMP180;51893;59.754;10.110;2023-05-02T14:27:48;101929.80;;;15.08
65290;BMP180;51893;59.754;10.110;2023-05-02T14:30:17;101921.60;;;15.20
65290;BMP180;51893;59.754;10.110;2023-05-02T14:32:46;101928.40;;;15.30
65290;BMP180;51893;59.754;10.110;2023-05-02T14:35:18;101929.60;;;15.30
65290;BMP180;51893;59.754;10.110;2023-05-02T14:37:49;101932.60;;;15.30
65290;BMP180;51893;59.754;10.110;2023-05-02T14:40:19;101935.60;;;15.40
65290;BMP180;51893;59.754;10.110;2023-05-02T14:42:47;101938.60;;;15.40
65290;BMP180;51893;59.754;10.110;2023-05-02T14:45:20;101938.00;;;15.50
65290;BMP180;51893;59.754;10.110;2023-05-02T14:47:48;101930.00;;;15.60
65290;BMP180;51893;59.754;10.110;2023-05-02T14:50:20;101941.00;;;15.70